createdAt,value
2022-08-25T00:00:17.652Z,2.15
2022-08-25T00:02:19.318Z,2.40
2022-08-25T00:04:22.939Z,2.42
2022-08-25T00:06:24.785Z,2.95
2022-08-25T00:08:26.396Z,2.80
2022-08-25T00:10:28.650Z,2.50
2022-08-25T00:12:30.270Z,2.70
2022-08-25T00:14:35.486Z,2.30
2022-08-25T00:16:39.286Z,2.58
2022-08-25T00:18:42.667Z,2.58
2022-08-25T00:20:49.196Z,2.70
2022-08-25T00:22:51.177Z,2.47
2022-08-25T00:24:52.830Z,2.50
2022-08-25T00:26:57.368Z,2.50
2022-08-25T00:29:01.831Z,2.70
2022-08-25T00:31:04.629Z,2.58
2022-08-25T00:33:07.276Z,2.35
2022-08-25T00:35:09.122Z,2.60
2022-08-25T00:37:10.961Z,2.50
2022-08-25T00:39:13.033Z,2.40
2022-08-25T00:41:20.838Z,2.72
2022-08-25T00:43:22.933Z,2.45
2022-08-25T00:45:24.941Z,2.53
2022-08-25T00:47:26.470Z,2.40
2022-08-25T00:49:39.310Z,2.72
2022-08-25T00:51:47.369Z,2.50
2022-08-25T00:53:48.971Z,2.85
2022-08-25T00:55:50.987Z,2.72
2022-08-25T00:58:08.196Z,2.97
2022-08-25T01:00:30.410Z,2.95
2022-08-25T01:02:32.278Z,2.80
2022-08-25T01:04:34.408Z,2.58
2022-08-25T01:06:39.618Z,2.67
2022-08-25T01:08:41.463Z,2.67
2022-08-25T01:10:44.555Z,2.50
2022-08-25T01:12:46.612Z,2.72
2022-08-25T01:14:50.004Z,2.42
2022-08-25T01:16:53.889Z,2.72
2022-08-25T01:18:58.213Z,2.53
2022-08-25T01:21:00.032Z,2.58
2022-08-25T01:23:01.881Z,2.90
2022-08-25T01:25:14.158Z,2.60
2022-08-25T01:27:15.708Z,2.53
2022-08-25T01:29:25.625Z,3.03
2022-08-25T01:31:28.944Z,2.78
2022-08-25T01:33:31.069Z,2.72
2022-08-25T01:35:33.343Z,2.85
2022-08-25T01:37:35.703Z,2.92
2022-08-25T01:39:37.489Z,2.80
2022-08-25T01:41:44.877Z,2.95
2022-08-25T01:43:46.396Z,2.90
2022-08-25T01:45:48.874Z,2.72
2022-08-25T01:47:50.829Z,2.90
2022-08-25T01:49:52.361Z,3.10
2022-08-25T01:52:06.441Z,2.70
2022-08-25T01:54:08.055Z,2.92
2022-08-25T01:56:16.122Z,2.90
2022-08-25T01:58:19.266Z,2.65
2022-08-25T02:00:22.854Z,3.15
2022-08-25T02:02:24.533Z,3.03
2022-08-25T02:04:32.149Z,3.00
2022-08-25T02:06:34.945Z,3.10
2022-08-25T02:08:38.299Z,3.33
2022-08-25T02:10:40.845Z,3.22
2022-08-25T02:12:42.784Z,2.80
2022-08-25T02:14:44.356Z,3.15
2022-08-25T02:16:49.834Z,2.95
2022-08-25T02:18:51.811Z,3.20
2022-08-25T02:20:54.288Z,3.08
2022-08-25T02:22:56.658Z,3.35
2022-08-25T02:24:59.258Z,2.90
2022-08-25T02:27:01.922Z,2.88
2022-08-25T02:29:05.598Z,3.35
2022-08-25T02:31:07.335Z,3.08
2022-08-25T02:33:09.940Z,3.25
2022-08-25T02:35:13.133Z,3.40
2022-08-25T02:37:14.786Z,3.00
2022-08-25T02:39:16.777Z,3.05
2022-08-25T02:41:30.928Z,3.20
2022-08-25T02:43:33.326Z,2.90
2022-08-25T02:45:35.233Z,3.10
2022-08-25T02:47:37.339Z,3.30
2022-08-25T02:49:39.027Z,3.08
2022-08-25T02:51:40.644Z,3.10
2022-08-25T02:53:45.967Z,3.10
2022-08-25T02:55:47.629Z,3.10
2022-08-25T02:57:49.484Z,3.15
2022-08-25T02:59:51.733Z,3.17
2022-08-25T03:01:53.412Z,3.30
2022-08-25T03:03:55.114Z,3.50
2022-08-25T03:05:57.431Z,3.42
2022-08-25T03:07:59.974Z,3.28
2022-08-25T03:10:08.631Z,3.40
2022-08-25T03:12:11.952Z,3.13
2022-08-25T03:14:13.576Z,3.40
2022-08-25T03:16:15.243Z,3.13
2022-08-25T03:18:17.719Z,3.03
2022-08-25T03:20:19.694Z,3.27
2022-08-25T03:22:21.395Z,3.30
2022-08-25T03:24:27.004Z,3.00
2022-08-25T03:26:47.167Z,3.90
2022-08-25T03:28:48.838Z,3.30
2022-08-25T03:30:55.806Z,3.20
2022-08-25T03:32:57.869Z,3.80
2022-08-25T03:35:01.621Z,3.93
2022-08-25T03:37:03.319Z,3.40
2022-08-25T03:39:05.576Z,3.40
2022-08-25T03:41:19.042Z,3.38
2022-08-25T03:43:20.703Z,3.50
2022-08-25T03:45:22.907Z,3.63
2022-08-25T03:47:29.463Z,3.72
2022-08-25T03:49:31.533Z,3.38
2022-08-25T03:51:42.096Z,3.30
2022-08-25T03:53:43.801Z,3.53
2022-08-25T03:55:45.405Z,3.88
2022-08-25T03:57:46.995Z,3.25
2022-08-25T03:59:48.646Z,3.65
2022-08-25T04:01:54.866Z,3.78
2022-08-25T04:03:57.301Z,3.60
2022-08-25T04:06:06.423Z,3.92
2022-08-25T04:08:09.211Z,3.80
2022-08-25T04:10:11.195Z,4.05
2022-08-25T04:12:12.776Z,3.90
2022-08-25T04:14:16.474Z,3.58
2022-08-25T04:16:24.332Z,3.95
2022-08-25T04:18:26.177Z,3.85
2022-08-25T04:20:27.865Z,3.83
2022-08-25T04:22:31.060Z,4.30
2022-08-25T04:24:35.504Z,3.92
2022-08-25T04:26:41.600Z,3.67
2022-08-25T04:28:43.263Z,4.20
2022-08-25T04:30:46.402Z,3.90
2022-08-25T04:32:50.998Z,4.10
2022-08-25T04:34:52.776Z,4.50
2022-08-25T04:36:54.432Z,4.00
2022-08-25T04:38:56.418Z,4.40
2022-08-25T04:41:00.543Z,4.30
2022-08-25T04:43:02.177Z,4.57
2022-08-25T04:45:04.398Z,4.47
2022-08-25T04:47:06.043Z,4.73
2022-08-25T04:49:07.815Z,3.87
2022-08-25T04:51:12.092Z,4.35
2022-08-25T04:53:13.986Z,4.57
2022-08-25T04:55:15.637Z,4.07
2022-08-25T04:57:17.205Z,4.37
2022-08-25T05:02:25.345Z,4.40
2022-08-25T05:04:28.237Z,5.00
2022-08-25T05:06:31.088Z,4.77
2022-08-25T05:08:34.021Z,4.90
2022-08-25T05:10:40.307Z,4.77
2022-08-25T05:12:43.550Z,4.90
2022-08-25T05:14:45.925Z,4.53
2022-08-25T05:16:48.391Z,4.82
2022-08-25T05:18:50.685Z,4.80
2022-08-25T05:20:56.386Z,4.97
2022-08-25T05:22:58.235Z,4.80
2022-08-25T05:24:59.946Z,5.03
2022-08-25T05:27:03.306Z,5.32
2022-08-25T05:29:05.555Z,4.57
2022-08-25T05:31:08.748Z,4.75
2022-08-25T05:33:11.982Z,4.83
2022-08-25T05:35:13.717Z,4.23
2022-08-25T05:37:15.287Z,4.75
2022-08-25T05:39:17.115Z,4.75
2022-08-25T05:41:21.840Z,5.00
2022-08-25T05:43:23.783Z,5.10
2022-08-25T05:45:25.479Z,4.95
2022-08-25T05:47:27.174Z,5.20
2022-08-25T05:49:28.737Z,4.80
2022-08-25T05:51:30.417Z,5.07
2022-08-25T05:53:34.060Z,5.25
2022-08-25T05:55:35.824Z,5.28
2022-08-25T05:57:37.468Z,5.40
2022-08-25T05:59:39.082Z,5.38
2022-08-25T06:01:59.281Z,5.43
2022-08-25T06:04:00.948Z,5.32
2022-08-25T06:06:07.315Z,5.15
2022-08-25T06:08:08.944Z,5.25
2022-08-25T06:10:14.589Z,5.32
2022-08-25T06:12:17.405Z,4.97
2022-08-25T06:14:19.989Z,5.70
2022-08-25T06:16:21.625Z,5.20
2022-08-25T06:18:23.228Z,5.18
2022-08-25T06:20:29.391Z,5.13
2022-08-25T06:22:31.001Z,5.25
2022-08-25T06:24:33.343Z,5.47
2022-08-25T06:26:35.173Z,5.50
2022-08-25T06:28:36.799Z,5.80
2022-08-25T06:30:39.609Z,5.40
2022-08-25T06:32:43.261Z,5.28
2022-08-25T06:34:45.316Z,4.90
2022-08-25T06:36:48.988Z,4.82
2022-08-25T06:38:52.728Z,4.80
2022-08-25T06:40:54.532Z,5.30
2022-08-25T06:42:56.117Z,5.75
2022-08-25T06:44:57.678Z,4.88
2022-08-25T06:46:59.534Z,4.90
2022-08-25T06:49:01.239Z,5.40
2022-08-25T06:51:06.813Z,4.68
2022-08-25T06:53:08.479Z,4.85
2022-08-25T06:55:10.402Z,4.70
2022-08-25T06:57:12.157Z,4.65
2022-08-25T06:59:15.115Z,4.35
2022-08-25T07:01:25.775Z,4.93
2022-08-25T07:03:27.622Z,4.75
2022-08-25T07:05:44.217Z,4.68
2022-08-25T07:07:46.542Z,4.90
2022-08-25T07:09:48.145Z,4.85
2022-08-25T07:11:49.791Z,4.90
2022-08-25T07:13:51.513Z,4.70
2022-08-25T07:15:56.304Z,4.75
2022-08-25T07:17:57.983Z,4.88
2022-08-25T07:19:59.711Z,4.53
2022-08-25T07:22:01.542Z,4.95
2022-08-25T07:24:09.271Z,4.57
2022-08-25T07:26:35.971Z,5.38
2022-08-25T07:28:36.238Z,4.88
2022-08-25T07:30:38.059Z,4.88
2022-08-25T07:32:42.023Z,5.05
2022-08-25T07:35:03.103Z,4.70
2022-08-25T07:37:05.163Z,4.95
2022-08-25T07:39:07.285Z,4.93
2022-08-25T07:41:08.854Z,5.20
2022-08-25T07:43:11.326Z,4.90
2022-08-25T07:45:17.341Z,5.05
2022-08-25T07:47:23.039Z,4.70
2022-08-25T07:49:26.437Z,4.25
2022-08-25T07:51:37.701Z,4.82
2022-08-25T07:53:56.935Z,4.90
2022-08-25T07:55:59.181Z,4.65
2022-08-25T07:58:00.803Z,4.40
2022-08-25T08:00:04.398Z,4.60
2022-08-25T08:02:17.713Z,4.50
2022-08-25T08:04:20.341Z,4.78
2022-08-25T08:06:24.246Z,5.03
2022-08-25T08:08:26.517Z,4.60
2022-08-25T08:11:03.332Z,4.95
2022-08-25T08:12:49.890Z,4.82
2022-08-25T08:14:53.947Z,5.35
2022-08-25T08:16:55.701Z,5.40
2022-08-25T08:18:58.935Z,5.50
2022-08-25T08:21:00.549Z,4.80
2022-08-25T08:23:02.791Z,4.72
2022-08-25T08:25:05.219Z,5.07
2022-08-25T08:27:13.802Z,4.93
2022-08-25T08:29:16.425Z,4.78
2022-08-25T08:31:24.001Z,5.15
2022-08-25T08:33:28.903Z,4.97
2022-08-25T08:35:30.466Z,5.10
2022-08-25T08:37:32.841Z,4.78
2022-08-25T08:39:35.033Z,5.40
2022-08-25T08:42:19.416Z,4.60
2022-08-25T08:44:45.330Z,5.20
2022-08-25T08:47:12.711Z,5.07
2022-08-25T08:49:28.034Z,5.25
2022-08-25T08:51:51.394Z,4.90
2022-08-25T08:54:18.544Z,5.55
2022-08-25T08:56:25.732Z,5.35
2022-08-25T08:58:43.801Z,5.10
2022-08-25T09:00:52.618Z,4.90
2022-08-25T09:03:06.206Z,5.07
2022-08-25T09:05:12.761Z,5.38
2022-08-25T09:07:21.017Z,5.07
2022-08-25T09:09:27.185Z,4.70
2022-08-25T09:11:36.650Z,4.53
2022-08-25T09:14:23.030Z,4.28
2022-08-25T09:16:55.479Z,4.88
2022-08-25T09:19:33.111Z,4.45
2022-08-25T09:22:02.948Z,4.38
2022-08-25T09:24:58.048Z,4.28
2022-08-25T09:27:08.407Z,4.53
2022-08-25T09:29:16.681Z,4.30
2022-08-25T09:31:29.799Z,4.57
2022-08-25T09:33:35.786Z,3.90
2022-08-25T09:35:40.736Z,4.30
2022-08-25T09:37:42.302Z,4.18
2022-08-25T09:39:43.900Z,4.40
2022-08-25T09:41:45.485Z,4.30
2022-08-25T09:43:54.290Z,4.13
2022-08-25T09:46:02.442Z,4.20
2022-08-25T09:48:21.889Z,4.38
2022-08-25T09:50:24.075Z,4.28
2022-08-25T09:52:28.652Z,4.25
2022-08-25T09:54:43.837Z,4.65
2022-08-25T09:56:57.083Z,3.85
2022-08-25T09:59:36.398Z,4.18
2022-08-25T10:01:48.979Z,3.83
2022-08-25T10:04:05.940Z,4.20
2022-08-25T10:06:15.889Z,3.90
2022-08-25T10:08:55.591Z,4.25
2022-08-25T10:10:59.447Z,3.95
2022-08-25T10:13:03.529Z,3.60
2022-08-25T10:15:30.397Z,3.60
2022-08-25T10:17:33.467Z,3.60
2022-08-25T10:19:35.328Z,3.58
2022-08-25T10:21:40.871Z,4.00
2022-08-25T10:23:49.511Z,3.60
2022-08-25T10:25:59.277Z,3.80
2022-08-25T10:28:19.929Z,4.05
2022-08-25T10:30:36.304Z,3.92
2022-08-25T10:33:18.342Z,3.90
2022-08-25T10:35:25.661Z,3.92
2022-08-25T10:37:45.760Z,3.60
2022-08-25T10:40:06.185Z,3.83
2022-08-25T10:42:40.063Z,3.53
2022-08-25T10:45:44.510Z,3.90
2022-08-25T10:47:57.967Z,3.80
2022-08-25T10:50:38.299Z,3.83
2022-08-25T10:52:58.222Z,3.38
2022-08-25T10:55:21.964Z,4.07
2022-08-25T10:57:29.511Z,3.65
2022-08-25T10:59:43.007Z,3.60
2022-08-25T11:03:46.215Z,3.72
2022-08-25T11:05:49.101Z,3.70
2022-08-25T11:07:57.973Z,3.55
2022-08-25T11:10:06.388Z,3.67
2022-08-25T11:12:16.639Z,3.83
2022-08-25T11:14:31.390Z,3.55
2022-08-25T11:17:10.681Z,3.45
2022-08-25T11:19:24.166Z,3.72
2022-08-25T11:21:49.956Z,4.00
2022-08-25T11:24:29.836Z,3.72
2022-08-25T11:26:37.185Z,3.42
2022-08-25T11:28:59.235Z,3.63
2022-08-25T11:31:03.023Z,3.50
2022-08-25T11:33:07.794Z,3.65
2022-08-25T11:35:13.943Z,3.47
2022-08-25T11:37:25.480Z,3.90
2022-08-25T11:39:35.685Z,3.50
2022-08-25T11:42:25.847Z,3.60
2022-08-25T11:44:51.888Z,3.80
2022-08-25T11:47:05.613Z,3.33
2022-08-25T11:49:26.263Z,3.78
2022-08-25T11:51:36.327Z,3.42
2022-08-25T11:53:42.266Z,3.50
2022-08-25T11:55:44.099Z,3.67
2022-08-25T11:57:51.598Z,3.67
2022-08-25T11:59:57.752Z,3.25
2022-08-25T12:02:01.640Z,3.47
2022-08-25T12:04:13.336Z,3.90
2022-08-25T12:06:30.106Z,3.80
2022-08-25T12:08:57.787Z,3.55
2022-08-25T12:10:59.416Z,3.65
2022-08-25T12:13:04.785Z,3.70
2022-08-25T12:15:18.776Z,3.55
2022-08-25T12:17:27.231Z,3.45
2022-08-25T12:19:28.947Z,3.90
2022-08-25T12:21:32.660Z,3.80
2022-08-25T12:23:44.813Z,3.65
2022-08-25T12:25:49.483Z,3.97
2022-08-25T12:28:22.965Z,3.47
2022-08-25T12:30:47.144Z,3.45
2022-08-25T12:33:19.476Z,3.75
2022-08-25T12:35:49.456Z,3.63
2022-08-25T12:38:13.814Z,3.50
2022-08-25T12:40:28.067Z,4.05
2022-08-25T12:42:37.911Z,3.38
2022-08-25T12:44:47.993Z,3.67
2022-08-25T12:47:10.835Z,3.30
2022-08-25T12:49:15.509Z,3.15
2022-08-25T12:51:21.367Z,3.10
2022-08-25T12:53:36.507Z,3.58
2022-08-25T12:55:44.474Z,3.55
2022-08-25T12:57:57.750Z,3.55
2022-08-25T13:00:16.809Z,3.35
2022-08-25T13:02:22.850Z,3.50
2022-08-25T13:04:25.585Z,3.70
2022-08-25T13:06:41.444Z,3.28
2022-08-25T13:08:56.169Z,3.30
2022-08-25T13:10:57.915Z,2.90
2022-08-25T13:13:20.809Z,3.40
2022-08-25T13:15:46.993Z,3.08
2022-08-25T13:17:48.832Z,3.03
2022-08-25T13:20:11.923Z,3.13
2022-08-25T13:22:16.353Z,3.50
2022-08-25T13:24:29.697Z,3.47
2022-08-25T13:26:35.113Z,3.28
2022-08-25T13:28:42.078Z,3.40
2022-08-25T13:31:18.859Z,3.72
2022-08-25T13:33:23.799Z,3.17
2022-08-25T13:35:32.263Z,3.53
2022-08-25T13:37:34.237Z,3.20
2022-08-25T13:39:55.884Z,3.08
2022-08-25T13:41:59.827Z,3.20
2022-08-25T13:44:06.594Z,3.20
2022-08-25T13:46:19.348Z,3.25
2022-08-25T13:48:40.035Z,3.08
2022-08-25T13:50:51.963Z,3.25
2022-08-25T13:52:57.739Z,2.95
2022-08-25T13:55:01.781Z,2.80
2022-08-25T13:57:30.259Z,3.30
2022-08-25T13:59:40.656Z,3.20
2022-08-25T14:01:49.985Z,3.00
2022-08-25T14:03:55.660Z,3.00
2022-08-25T14:06:16.991Z,3.00
2022-08-25T14:08:34.640Z,2.85
2022-08-25T14:10:41.260Z,3.10
2022-08-25T14:12:46.896Z,3.00
2022-08-25T14:15:09.306Z,3.03
2022-08-25T14:17:28.723Z,2.97
2022-08-25T14:19:34.372Z,3.20
2022-08-25T14:21:40.884Z,3.35
2022-08-25T14:23:43.927Z,3.40
2022-08-25T14:25:49.267Z,3.40
2022-08-25T14:28:08.156Z,3.40
2022-08-25T14:30:11.508Z,3.83
2022-08-25T14:32:16.344Z,3.63
2022-08-25T14:34:25.359Z,3.33
2022-08-25T14:36:31.408Z,3.22
2022-08-25T14:38:34.423Z,3.30
2022-08-25T14:40:36.338Z,3.42
2022-08-25T14:42:38.132Z,3.58
2022-08-25T14:44:39.836Z,3.30
2022-08-25T14:46:45.762Z,3.22
2022-08-25T14:48:52.182Z,3.20
2022-08-25T14:50:56.085Z,3.20
2022-08-25T14:52:59.780Z,3.75
2022-08-25T14:55:02.803Z,3.40
2022-08-25T14:57:04.602Z,3.28
2022-08-25T14:59:10.227Z,3.40
2022-08-25T15:01:16.907Z,3.20
2022-08-25T15:03:25.900Z,3.45
2022-08-25T15:05:29.096Z,3.00
2022-08-25T15:07:51.364Z,3.10
2022-08-25T15:09:52.948Z,3.35
2022-08-25T15:11:56.801Z,3.33
2022-08-25T15:14:01.610Z,3.15
2022-08-25T15:16:05.098Z,3.20
2022-08-25T15:18:06.896Z,3.40
2022-08-25T15:20:09.372Z,3.30
2022-08-25T15:22:12.949Z,3.38
2022-08-25T15:24:17.423Z,3.25
2022-08-25T15:26:20.238Z,3.30
2022-08-25T15:28:22.532Z,3.25
2022-08-25T15:30:30.878Z,3.13
2022-08-25T15:32:33.439Z,3.42
2022-08-25T15:34:36.076Z,3.40
2022-08-25T15:36:37.942Z,3.13
2022-08-25T15:38:43.830Z,2.92
2022-08-25T15:40:47.877Z,3.25
2022-08-25T15:42:50.056Z,3.00
2022-08-25T15:44:53.081Z,3.15
2022-08-25T15:46:56.329Z,3.05
2022-08-25T15:48:59.646Z,3.17
2022-08-25T15:51:01.633Z,2.92
2022-08-25T15:53:03.431Z,2.90
2022-08-25T15:55:05.642Z,3.17
2022-08-25T15:57:08.921Z,3.10
2022-08-25T15:59:13.522Z,3.25
2022-08-25T16:01:21.554Z,2.75
2022-08-25T16:03:26.422Z,3.60
2022-08-25T16:05:28.062Z,3.55
2022-08-25T16:07:31.776Z,3.53
2022-08-25T16:09:33.574Z,3.03
2022-08-25T16:11:35.447Z,3.25
2022-08-25T16:13:40.297Z,3.08
2022-08-25T16:15:48.127Z,3.20
2022-08-25T16:17:56.184Z,3.10
2022-08-25T16:19:57.823Z,3.15
2022-08-25T16:22:00.782Z,2.97
2022-08-25T16:24:07.466Z,2.95
2022-08-25T16:26:10.641Z,3.17
2022-08-25T16:28:16.537Z,2.72
2022-08-25T16:30:18.517Z,3.20
2022-08-25T16:32:20.911Z,2.90
2022-08-25T16:34:24.708Z,3.05
2022-08-25T16:36:30.252Z,3.30
2022-08-25T16:38:32.811Z,2.97
2022-08-25T16:40:41.237Z,2.97
2022-08-25T16:42:42.980Z,3.00
2022-08-25T16:44:44.915Z,2.90
2022-08-25T16:46:46.775Z,3.00
2022-08-25T16:48:48.804Z,3.38
2022-08-25T16:50:50.377Z,3.03
2022-08-25T16:53:24.538Z,3.30
2022-08-25T16:55:28.561Z,3.38
2022-08-25T16:57:54.278Z,2.88
2022-08-25T16:59:56.024Z,3.00
2022-08-25T17:01:58.092Z,4.00
2022-08-25T17:04:00.038Z,4.00
2022-08-25T17:06:01.867Z,3.30
2022-08-25T17:08:22.118Z,4.18
2022-08-25T17:10:23.668Z,3.22
2022-08-25T17:12:27.616Z,3.05
2022-08-25T17:14:29.245Z,2.78
2022-08-25T17:16:35.569Z,2.80
2022-08-25T17:18:38.740Z,3.15
2022-08-25T17:20:45.266Z,3.47
2022-08-25T17:22:47.750Z,2.90
2022-08-25T17:24:59.107Z,3.13
2022-08-25T17:27:02.027Z,2.70
2022-08-25T17:29:04.297Z,2.53
2022-08-25T17:31:08.968Z,2.90
2022-08-25T17:33:12.292Z,3.05
2022-08-25T17:35:15.039Z,2.72
2022-08-25T17:37:16.614Z,2.92
2022-08-25T17:39:22.114Z,2.65
2022-08-25T17:41:24.397Z,2.80
2022-08-25T17:43:27.609Z,2.60
2022-08-25T17:45:29.997Z,3.00
2022-08-25T17:47:32.997Z,3.47
2022-08-25T17:49:34.785Z,3.00
2022-08-25T17:51:36.756Z,3.00
2022-08-25T17:53:38.673Z,2.58
2022-08-25T17:55:42.291Z,3.13
2022-08-25T17:57:44.860Z,3.08
2022-08-25T17:59:46.423Z,2.92
2022-08-25T18:01:49.445Z,2.92
2022-08-25T18:03:51.926Z,3.28
2022-08-25T18:05:53.987Z,2.97
2022-08-25T18:07:55.640Z,3.00
2022-08-25T18:09:57.321Z,4.35
2022-08-25T18:11:59.082Z,4.03
2022-08-25T18:14:00.722Z,4.22
2022-08-25T18:16:02.832Z,4.20
2022-08-25T18:18:06.377Z,3.53
2022-08-25T18:20:11.201Z,3.50
2022-08-25T18:22:12.776Z,3.38
2022-08-25T18:24:14.545Z,3.03
2022-08-25T18:26:16.372Z,3.53
2022-08-25T18:28:18.027Z,3.25
2022-08-25T18:30:20.367Z,2.90
2022-08-25T18:32:22.192Z,2.88
2022-08-25T18:34:27.885Z,3.40
2022-08-25T18:36:32.533Z,3.67
2022-08-25T18:39:00.303Z,3.40
2022-08-25T18:41:06.152Z,3.05
2022-08-25T18:43:09.930Z,3.05
2022-08-25T18:45:12.337Z,3.42
2022-08-25T18:47:14.166Z,3.20
2022-08-25T18:49:17.175Z,3.50
2022-08-25T18:51:23.087Z,3.42
2022-08-25T18:53:30.713Z,3.33
2022-08-25T18:55:40.668Z,3.20
2022-08-25T18:57:42.703Z,2.83
2022-08-25T18:59:44.440Z,3.00
2022-08-25T19:01:46.705Z,3.30
2022-08-25T19:03:49.614Z,3.33
2022-08-25T19:05:57.259Z,3.70
2022-08-25T19:08:04.374Z,3.03
2022-08-25T19:10:06.189Z,3.15
2022-08-25T19:12:11.878Z,3.03
2022-08-25T19:14:24.681Z,3.17
2022-08-25T19:16:34.989Z,3.60
2022-08-25T19:18:36.644Z,3.20
2022-08-25T19:20:40.140Z,3.20
2022-08-25T19:22:42.353Z,3.88
2022-08-25T19:24:44.950Z,3.70
2022-08-25T19:26:47.325Z,3.47
2022-08-25T19:28:50.989Z,3.10
2022-08-25T19:30:52.638Z,3.38
2022-08-25T19:32:54.305Z,3.33
2022-08-25T19:34:56.160Z,2.65
2022-08-25T19:37:00.660Z,3.35
2022-08-25T19:39:04.334Z,3.17
2022-08-25T19:41:09.456Z,3.25
2022-08-25T19:43:17.425Z,3.63
2022-08-25T19:45:22.424Z,3.10
2022-08-25T19:47:24.345Z,3.92
2022-08-25T19:49:34.298Z,3.22
2022-08-25T19:51:40.982Z,3.38
2022-08-25T19:53:46.752Z,3.95
2022-08-25T19:55:55.752Z,3.10
2022-08-25T19:57:57.656Z,3.30
2022-08-25T19:59:59.723Z,3.50
2022-08-25T20:02:01.574Z,3.30
2022-08-25T20:04:04.568Z,3.50
2022-08-25T20:06:06.563Z,3.50
2022-08-25T20:08:08.378Z,3.42
2022-08-25T20:10:14.125Z,3.30
2022-08-25T20:12:20.249Z,3.50
2022-08-25T20:14:21.995Z,3.90
2022-08-25T20:16:24.112Z,3.88
2022-08-25T20:18:26.044Z,3.65
2022-08-25T20:20:32.607Z,3.75
2022-08-25T20:22:37.239Z,3.70
2022-08-25T20:24:49.331Z,3.60
2022-08-25T20:26:53.996Z,3.65
2022-08-25T20:28:56.680Z,3.78
2022-08-25T20:30:58.465Z,3.50
2022-08-25T20:33:02.489Z,3.55
2022-08-25T20:35:08.952Z,3.80
2022-08-25T20:37:11.096Z,3.38
2022-08-25T20:39:13.189Z,3.50
2022-08-25T20:41:15.517Z,3.53
2022-08-25T20:43:17.364Z,3.67
2022-08-25T20:45:23.727Z,3.40
2022-08-25T20:47:25.494Z,3.00
2022-08-25T20:49:28.639Z,3.80
2022-08-25T20:51:40.399Z,3.60
2022-08-25T20:53:42.736Z,3.50
2022-08-25T20:55:44.320Z,3.90
2022-08-25T20:57:46.884Z,3.80
2022-08-25T20:59:48.968Z,3.63
2022-08-25T21:01:50.986Z,3.67
2022-08-25T21:03:52.781Z,3.50
2022-08-25T21:05:54.420Z,3.95
2022-08-25T21:07:55.986Z,4.43
2022-08-25T21:09:58.404Z,3.78
2022-08-25T21:12:01.437Z,3.88
2022-08-25T21:14:05.944Z,3.72
2022-08-25T21:16:08.439Z,3.40
2022-08-25T21:18:10.178Z,3.40
2022-08-25T21:20:13.659Z,3.70
2022-08-25T21:22:15.247Z,3.65
2022-08-25T21:24:19.379Z,4.10
2022-08-25T21:26:23.901Z,3.70
2022-08-25T21:28:27.748Z,3.80
2022-08-25T21:30:29.524Z,4.10
2022-08-25T21:32:31.325Z,4.00
2022-08-25T21:34:32.915Z,3.55
2022-08-25T21:36:34.655Z,3.58
2022-08-25T21:38:37.343Z,3.53
2022-08-25T21:40:44.864Z,4.22
2022-08-25T21:42:46.801Z,3.90
2022-08-25T21:44:48.455Z,3.70
2022-08-25T21:46:53.732Z,3.60
2022-08-25T21:48:57.841Z,3.60
2022-08-25T21:51:09.887Z,3.47
2022-08-25T21:53:11.761Z,3.58
2022-08-25T21:55:16.349Z,3.22
2022-08-25T21:57:23.520Z,3.50
2022-08-25T21:59:32.473Z,3.90
2022-08-25T22:01:34.779Z,3.47
2022-08-25T22:03:38.695Z,3.53
2022-08-25T22:05:41.172Z,3.53
2022-08-25T22:07:47.228Z,4.15
2022-08-25T22:09:49.124Z,3.55
2022-08-25T22:11:51.955Z,3.40
2022-08-25T22:13:57.165Z,3.67
2022-08-25T22:16:00.616Z,4.35
2022-08-25T22:18:02.419Z,3.25
2022-08-25T22:20:06.049Z,3.55
2022-08-25T22:22:08.859Z,3.63
2022-08-25T22:24:11.613Z,3.33
2022-08-25T22:26:16.651Z,3.85
2022-08-25T22:28:24.155Z,3.95
2022-08-25T22:30:29.389Z,3.60
2022-08-25T22:32:31.348Z,3.47
2022-08-25T22:34:34.845Z,3.78
2022-08-25T22:36:42.136Z,3.72
2022-08-25T22:38:45.003Z,3.63
2022-08-25T22:40:47.053Z,3.83
2022-08-25T22:42:50.227Z,3.38
2022-08-25T22:44:51.809Z,3.80
2022-08-25T22:46:53.559Z,4.10
2022-08-25T22:48:55.928Z,3.30
2022-08-25T22:51:08.057Z,3.78
2022-08-25T22:53:09.669Z,3.40
2022-08-25T22:55:11.877Z,3.90
2022-08-25T22:57:13.637Z,3.13
2022-08-25T22:59:15.592Z,3.70
2022-08-25T23:01:19.149Z,3.63
2022-08-25T23:03:20.838Z,3.72
2022-08-25T23:05:23.031Z,3.75
2022-08-25T23:07:24.621Z,3.83
2022-08-25T23:09:26.229Z,3.88
2022-08-25T23:11:28.986Z,3.58
2022-08-25T23:13:34.304Z,3.65
2022-08-25T23:15:36.257Z,3.55
2022-08-25T23:17:38.613Z,3.67
2022-08-25T23:19:40.319Z,3.95
2022-08-25T23:22:02.280Z,3.83
2022-08-25T23:24:04.420Z,3.13
2022-08-25T23:26:06.011Z,4.65
2022-08-25T23:28:07.946Z,3.78
2022-08-25T23:30:10.616Z,3.70
2022-08-25T23:32:14.380Z,4.03
2022-08-25T23:34:16.546Z,3.97
2022-08-25T23:36:18.351Z,3.67
2022-08-25T23:38:20.040Z,3.85
2022-08-25T23:40:22.334Z,3.88
2022-08-25T23:42:24.156Z,3.72
2022-08-25T23:44:25.936Z,3.70
2022-08-25T23:46:29.608Z,4.00
2022-08-25T23:48:32.445Z,3.80
2022-08-25T23:50:46.029Z,3.95
2022-08-25T23:52:47.721Z,3.92
2022-08-25T23:54:49.343Z,4.00
2022-08-25T23:56:51.599Z,3.90
2022-08-25T23:58:54.126Z,3.97
